createdAt,value
2022-12-03T00:00:38.932Z,45.95
2022-12-03T00:04:56.258Z,45.83
2022-12-03T00:09:13.389Z,44.38
2022-12-03T00:13:30.520Z,45.22
2022-12-03T00:17:47.649Z,45.45
2022-12-03T00:22:04.808Z,44.33
2022-12-03T00:26:21.988Z,44.17
2022-12-03T00:30:39.185Z,43.47
2022-12-03T00:34:56.420Z,44.22
2022-12-03T00:39:13.567Z,44.60
2022-12-03T00:43:30.762Z,42.72
2022-12-03T00:47:47.909Z,42.33
2022-12-03T00:52:05.116Z,43.10
2022-12-03T00:56:22.240Z,44.33
2022-12-03T01:00:39.379Z,43.13
2022-12-03T01:04:57.118Z,42.35
2022-12-03T01:09:14.573Z,42.15
2022-12-03T01:13:31.696Z,42.85
2022-12-03T01:17:48.890Z,42.80
2022-12-03T01:22:06.082Z,43.70
2022-12-03T01:26:23.409Z,43.90
2022-12-03T01:31:00.534Z,43.17
2022-12-03T01:35:17.790Z,42.17
2022-12-03T01:39:35.062Z,44.35
2022-12-03T01:43:53.392Z,44.17
2022-12-03T01:52:34.241Z,43.40
2022-12-03T01:56:51.878Z,43.30
2022-12-03T02:01:18.600Z,43.92
2022-12-03T02:05:37.280Z,42.88
2022-12-03T02:09:55.929Z,41.45
2022-12-03T02:14:19.420Z,40.30
2022-12-03T02:18:36.811Z,42.00
2022-12-03T02:23:02.604Z,42.15
2022-12-03T02:27:19.869Z,40.50
2022-12-03T02:31:37.153Z,40.38
2022-12-03T02:35:56.956Z,40.47
2022-12-03T02:40:21.267Z,40.45
2022-12-03T02:44:38.606Z,40.90
2022-12-03T02:48:55.928Z,38.17
2022-12-03T02:53:17.621Z,40.60
2022-12-03T02:57:37.562Z,38.58
2022-12-03T03:01:55.076Z,38.65
2022-12-03T03:06:13.049Z,38.70
2022-12-03T03:10:31.700Z,37.78
2022-12-03T03:14:48.946Z,37.53
2022-12-03T03:19:06.413Z,38.08
2022-12-03T03:23:24.235Z,38.10
2022-12-03T03:27:42.056Z,37.88
2022-12-03T03:32:00.325Z,39.15
2022-12-03T03:40:34.879Z,36.15
2022-12-03T03:44:52.334Z,36.90
2022-12-03T03:49:10.488Z,35.90
2022-12-03T03:53:27.690Z,36.60
2022-12-03T03:57:44.888Z,36.95
2022-12-03T04:02:02.038Z,34.75
2022-12-03T04:06:19.561Z,37.90
2022-12-03T04:10:55.524Z,36.23
2022-12-03T04:15:12.620Z,36.80
2022-12-03T04:19:29.691Z,35.80
2022-12-03T04:23:46.821Z,35.92
2022-12-03T04:28:22.681Z,35.55
2022-12-03T04:32:58.680Z,35.63
2022-12-03T04:37:15.860Z,36.22
2022-12-03T04:41:33.014Z,35.22
2022-12-03T04:45:50.416Z,35.55
2022-12-03T04:50:08.095Z,36.73
2022-12-03T04:54:26.828Z,36.07
2022-12-03T04:58:44.019Z,35.95
2022-12-03T05:03:01.200Z,37.20
2022-12-03T05:07:18.396Z,36.13
2022-12-03T05:11:35.865Z,36.75
2022-12-03T05:15:52.981Z,35.70
2022-12-03T05:20:29.474Z,36.00
2022-12-03T05:24:46.576Z,36.95
2022-12-03T05:29:03.781Z,36.47
2022-12-03T05:33:20.996Z,37.20
2022-12-03T05:37:38.175Z,35.97
2022-12-03T05:42:14.263Z,36.53
2022-12-03T05:46:32.589Z,36.40
2022-12-03T05:50:49.755Z,35.50
2022-12-03T05:55:07.712Z,34.65
2022-12-03T05:59:24.852Z,34.55
2022-12-03T06:03:42.239Z,36.72
2022-12-03T06:08:00.453Z,34.87
2022-12-03T06:12:17.641Z,34.35
2022-12-03T06:16:34.807Z,35.08
2022-12-03T06:20:51.985Z,36.08
2022-12-03T06:25:10.253Z,35.88
2022-12-03T06:33:44.322Z,35.20
2022-12-03T06:38:01.503Z,37.00
2022-12-03T06:42:18.614Z,36.65
2022-12-03T06:46:35.865Z,36.95
2022-12-03T06:50:52.956Z,37.20
2022-12-03T06:55:10.444Z,38.78
2022-12-03T06:59:27.588Z,38.67
2022-12-03T07:03:44.777Z,36.63
2022-12-03T07:08:02.098Z,37.47
2022-12-03T07:12:19.311Z,37.60
2022-12-03T07:16:36.805Z,37.05
2022-12-03T07:20:54.197Z,35.87
2022-12-03T07:25:15.724Z,37.60
2022-12-03T07:29:35.293Z,38.58
2022-12-03T07:33:52.593Z,37.03
2022-12-03T07:38:09.742Z,38.72
2022-12-03T07:42:26.822Z,36.53
2022-12-03T07:46:44.002Z,36.47
2022-12-03T07:51:01.193Z,34.80
2022-12-03T07:55:18.341Z,34.97
2022-12-03T07:59:35.439Z,34.50
2022-12-03T08:03:52.523Z,35.40
2022-12-03T08:08:09.724Z,36.38
2022-12-03T08:12:42.580Z,38.92
2022-12-03T08:16:59.699Z,38.53
2022-12-03T08:21:21.300Z,35.55
2022-12-03T08:25:38.460Z,38.58
2022-12-03T08:30:00.934Z,38.35
2022-12-03T08:34:22.511Z,36.47
2022-12-03T08:38:39.868Z,36.63
2022-12-03T08:42:57.042Z,33.17
2022-12-03T08:47:20.270Z,36.63
2022-12-03T08:51:37.416Z,35.05
2022-12-03T08:56:17.220Z,36.55
2022-12-03T09:00:34.321Z,34.90
2022-12-03T09:04:53.109Z,36.40
2022-12-03T09:09:10.592Z,36.45
2022-12-03T09:13:27.668Z,35.63
2022-12-03T09:17:44.888Z,36.60
2022-12-03T09:22:02.080Z,35.85
2022-12-03T09:26:19.227Z,36.97
2022-12-03T09:30:36.801Z,35.90
2022-12-03T09:34:54.178Z,35.80
2022-12-03T09:39:11.488Z,38.27
2022-12-03T09:44:02.856Z,36.10
2022-12-03T09:48:09.906Z,36.53
2022-12-03T09:52:29.450Z,39.07
2022-12-03T09:56:46.574Z,40.45
2022-12-03T10:01:13.669Z,41.20
2022-12-03T10:05:30.966Z,48.22
2022-12-03T10:09:48.343Z,54.85
2022-12-03T10:14:06.040Z,50.63
2022-12-03T10:18:28.724Z,50.50
2022-12-03T10:22:48.834Z,42.38
2022-12-03T10:27:24.972Z,42.15
2022-12-03T10:31:42.144Z,40.50
2022-12-03T10:36:15.698Z,39.20
2022-12-03T10:40:35.495Z,58.03
2022-12-03T10:45:15.502Z,40.13
2022-12-03T10:49:32.848Z,37.45
2022-12-03T10:53:51.050Z,37.60
2022-12-03T10:58:21.571Z,38.13
2022-12-03T11:02:38.749Z,39.00
2022-12-03T11:06:55.872Z,38.03
2022-12-03T11:11:20.614Z,39.90
2022-12-03T11:15:45.220Z,38.80
2022-12-03T11:20:02.368Z,54.72
2022-12-03T11:24:20.672Z,42.75
2022-12-03T11:28:46.893Z,87.20
2022-12-03T11:33:04.202Z,44.28
2022-12-03T11:37:22.192Z,49.40
2022-12-03T11:41:39.449Z,49.67
2022-12-03T11:46:02.684Z,48.80
2022-12-03T11:50:28.199Z,41.72
2022-12-03T11:54:48.012Z,35.53
2022-12-03T11:59:12.790Z,37.17
2022-12-03T12:03:35.189Z,35.13
2022-12-03T12:07:54.929Z,37.20
2022-12-03T12:12:20.894Z,43.35
2022-12-03T12:16:43.399Z,40.78
2022-12-03T12:21:39.844Z,37.67
2022-12-03T12:26:06.461Z,37.38
2022-12-03T12:30:24.110Z,37.25
2022-12-03T12:34:42.449Z,38.17
2022-12-03T12:38:59.991Z,37.70
2022-12-03T12:43:25.565Z,38.08
2022-12-03T12:48:14.714Z,37.47
2022-12-03T12:52:31.843Z,37.75
2022-12-03T12:56:50.226Z,37.70
2022-12-03T13:01:18.698Z,39.13
2022-12-03T13:05:41.032Z,41.33
2022-12-03T13:10:00.034Z,40.30
2022-12-03T13:14:19.031Z,37.90
2022-12-03T13:18:45.744Z,40.30
2022-12-03T13:23:05.890Z,35.92
2022-12-03T13:27:29.452Z,35.95
2022-12-03T13:32:11.261Z,33.15
2022-12-03T13:36:51.926Z,34.45
2022-12-03T13:41:34.494Z,38.25
2022-12-03T13:45:54.178Z,37.72
2022-12-03T13:50:38.084Z,38.20
2022-12-03T13:54:56.849Z,40.72
2022-12-03T13:59:14.145Z,39.80
2022-12-03T14:03:31.283Z,44.35
2022-12-03T14:07:48.509Z,43.03
2022-12-03T14:12:24.594Z,40.30
2022-12-03T14:16:41.786Z,39.63
2022-12-03T14:20:59.050Z,40.45
2022-12-03T14:25:16.351Z,40.75
2022-12-03T14:29:33.473Z,40.47
2022-12-03T14:33:50.603Z,41.13
2022-12-03T14:38:07.744Z,39.40
2022-12-03T14:42:24.860Z,38.70
2022-12-03T14:46:42.249Z,39.35
2022-12-03T14:50:59.623Z,40.35
2022-12-03T14:55:17.365Z,41.55
2022-12-03T14:59:34.637Z,39.78
2022-12-03T15:03:51.829Z,41.47
2022-12-03T15:08:09.654Z,42.25
2022-12-03T15:12:26.939Z,41.88
2022-12-03T15:16:44.143Z,41.72
2022-12-03T15:21:01.619Z,41.63
2022-12-03T15:25:25.498Z,44.65
2022-12-03T15:29:42.812Z,44.63
2022-12-03T15:33:59.919Z,43.80
2022-12-03T15:38:17.483Z,45.38
2022-12-03T15:42:34.572Z,45.37
2022-12-03T15:46:51.740Z,44.45
2022-12-03T15:51:08.876Z,43.80
2022-12-03T15:55:26.008Z,44.78
2022-12-03T15:59:43.244Z,46.03
2022-12-03T16:04:00.361Z,50.22
2022-12-03T16:08:17.567Z,47.40
2022-12-03T16:12:34.700Z,48.40
2022-12-03T16:16:52.053Z,44.33
2022-12-03T16:21:09.212Z,45.05
2022-12-03T16:25:26.569Z,47.22
2022-12-03T16:29:43.691Z,42.95
2022-12-03T16:34:00.787Z,46.08
2022-12-03T16:38:17.894Z,44.47
2022-12-03T16:42:36.880Z,42.50
2022-12-03T16:46:54.174Z,48.78
2022-12-03T16:51:11.518Z,44.70
2022-12-03T16:55:28.974Z,44.75
2022-12-03T16:59:46.203Z,42.53
2022-12-03T17:04:03.306Z,40.38
2022-12-03T17:08:20.580Z,40.97
2022-12-03T17:13:07.650Z,41.53
2022-12-03T17:17:14.908Z,42.40
2022-12-03T17:21:34.855Z,41.65
2022-12-03T17:25:52.340Z,40.28
2022-12-03T17:30:10.916Z,41.25
2022-12-03T17:34:28.136Z,41.33
2022-12-03T17:38:45.315Z,43.00
2022-12-03T17:43:02.544Z,45.85
2022-12-03T17:47:19.698Z,43.30
2022-12-03T17:51:36.837Z,44.10
2022-12-03T17:55:54.468Z,70.05
2022-12-03T18:00:12.308Z,43.13
2022-12-03T18:04:29.538Z,38.78
2022-12-03T18:08:46.721Z,36.83
2022-12-03T18:13:04.018Z,29.55
2022-12-03T18:17:21.158Z,25.38
2022-12-03T18:21:38.383Z,23.45
2022-12-03T18:25:55.870Z,22.30
2022-12-03T18:30:13.491Z,23.17
2022-12-03T18:34:30.609Z,23.50
2022-12-03T18:38:50.952Z,23.65
2022-12-03T18:43:15.991Z,22.60
2022-12-03T18:47:33.196Z,23.17
2022-12-03T18:51:54.482Z,22.30
2022-12-03T18:56:17.398Z,23.23
2022-12-03T19:00:35.730Z,23.73
2022-12-03T19:09:09.960Z,27.20
2022-12-03T19:13:27.849Z,29.13
2022-12-03T19:17:49.538Z,30.48
2022-12-03T19:22:06.692Z,23.23
2022-12-03T19:26:23.863Z,25.42
2022-12-03T19:30:41.017Z,24.90
2022-12-03T19:34:58.187Z,26.02
2022-12-03T19:39:15.303Z,23.35
2022-12-03T19:43:34.363Z,23.08
2022-12-03T19:47:51.505Z,22.05
2022-12-03T19:52:08.620Z,20.58
2022-12-03T19:56:25.835Z,24.48
2022-12-03T20:00:43.189Z,21.83
2022-12-03T20:05:00.340Z,21.38
2022-12-03T20:09:17.947Z,22.75
2022-12-03T20:13:36.681Z,22.00
2022-12-03T20:17:53.935Z,22.42
2022-12-03T20:22:11.071Z,21.65
2022-12-03T20:26:29.498Z,21.27
2022-12-03T20:31:05.042Z,21.65
2022-12-03T20:35:22.148Z,21.83
2022-12-03T20:39:39.271Z,22.45
2022-12-03T20:43:56.829Z,24.13
2022-12-03T20:48:13.931Z,24.87
2022-12-03T20:52:31.135Z,26.30
2022-12-03T20:56:48.393Z,27.15
2022-12-03T21:01:15.856Z,26.52
2022-12-03T21:05:33.183Z,25.17
2022-12-03T21:09:50.663Z,25.10
2022-12-03T21:14:09.067Z,26.58
2022-12-03T21:22:43.272Z,22.65
2022-12-03T21:27:00.402Z,22.42
2022-12-03T21:31:25.198Z,23.58
2022-12-03T21:35:42.417Z,22.73
2022-12-03T21:39:59.512Z,22.75
2022-12-03T21:44:16.650Z,22.38
2022-12-03T21:48:33.943Z,21.73
2022-12-03T21:52:51.314Z,21.83
2022-12-03T21:57:08.428Z,21.50
2022-12-03T22:01:25.746Z,25.73
2022-12-03T22:05:43.037Z,30.20
2022-12-03T22:10:00.262Z,23.13
2022-12-03T22:14:17.425Z,22.70
2022-12-03T22:18:35.250Z,22.25
2022-12-03T22:22:52.336Z,26.60
2022-12-03T22:27:09.504Z,27.73
2022-12-03T22:31:26.655Z,25.45
2022-12-03T22:35:43.800Z,25.17
2022-12-03T22:40:00.960Z,30.23
2022-12-03T22:44:18.050Z,31.63
2022-12-03T22:48:36.664Z,32.85
2022-12-03T22:52:53.758Z,31.92
2022-12-03T22:57:10.958Z,33.80
2022-12-03T23:01:34.303Z,33.13
2022-12-03T23:05:51.459Z,32.53
2022-12-03T23:10:09.024Z,34.22
2022-12-03T23:14:26.143Z,34.70
2022-12-03T23:18:43.332Z,35.30
2022-12-03T23:23:00.474Z,35.08
2022-12-03T23:27:17.599Z,35.30
2022-12-03T23:31:35.120Z,35.28
2022-12-03T23:35:52.333Z,34.60
2022-12-03T23:40:10.104Z,37.03
2022-12-03T23:44:27.841Z,35.63
2022-12-03T23:48:45.599Z,34.60
2022-12-03T23:53:02.700Z,37.72
2022-12-03T23:57:19.830Z,36.10
